sensor_id;sensor_type;location;lat;lon;timestamp;P1;durP1;ratioP1;P2;durP2;ratioP2
39502;SDS011;26970;49.900;10.774;2023-09-30T00:00:57;25.83;;;9.38;;
39502;SDS011;26970;49.900;10.774;2023-09-30T00:03:23;26.63;;;9.77;;
39502;SDS011;26970;49.900;10.774;2023-09-30T00:05:49;23.27;;;8.93;;
39502;SDS011;26970;49.900;10.774;2023-09-30T00:08:14;26.15;;;10.13;;
39502;SDS011;26970;49.900;10.774;2023-09-30T00:10:40;22.38;;;8.98;;
39502;SDS011;26970;49.900;10.774;2023-09-30T00:13:05;22.00;;;8.73;;
39502;SDS011;26970;49.900;10.774;2023-09-30T00:15:32;27.73;;;9.80;;
39502;SDS011;26970;49.900;10.774;2023-09-30T00:17:58;27.00;;;10.43;;
39502;SDS011;26970;49.900;10.774;2023-09-30T00:20:24;28.52;;;9.60;;
39502;SDS011;26970;49.900;10.774;2023-09-30T00:22:49;21.63;;;8.55;;
39502;SDS011;26970;49.900;10.774;2023-09-30T00:25:15;20.35;;;8.25;;
39502;SDS011;26970;49.900;10.774;2023-09-30T00:27:40;25.02;;;9.48;;
39502;SDS011;26970;49.900;10.774;2023-09-30T00:30:06;22.42;;;8.55;;
39502;SDS011;26970;49.900;10.774;2023-09-30T00:32:32;22.30;;;8.77;;
39502;SDS011;26970;49.900;10.774;2023-09-30T00:34:58;20.77;;;8.40;;
39502;SDS011;26970;49.900;10.774;2023-09-30T00:37:25;21.73;;;9.02;;
39502;SDS011;26970;49.900;10.774;2023-09-30T00:39:52;21.88;;;8.57;;
39502;SDS011;26970;49.900;10.774;2023-09-30T00:42:18;25.77;;;8.93;;
39502;SDS011;26970;49.900;10.774;2023-09-30T00:44:45;22.75;;;9.02;;
39502;SDS011;26970;49.900;10.774;2023-09-30T00:47:11;21.65;;;8.60;;
39502;SDS011;26970;49.900;10.774;2023-09-30T00:49:37;23.55;;;9.00;;
39502;SDS011;26970;49.900;10.774;2023-09-30T00:52:03;23.83;;;8.98;;
39502;SDS011;26970;49.900;10.774;2023-09-30T00:54:29;21.17;;;8.98;;
39502;SDS011;26970;49.900;10.774;2023-09-30T00:56:55;25.48;;;9.77;;
39502;SDS011;26970;49.900;10.774;2023-09-30T00:59:22;19.65;;;8.02;;
39502;SDS011;26970;49.900;10.774;2023-09-30T01:01:51;21.20;;;9.00;;
39502;SDS011;26970;49.900;10.774;2023-09-30T01:04:22;22.67;;;8.98;;
39502;SDS011;26970;49.900;10.774;2023-09-30T01:06:48;16.42;;;6.75;;
39502;SDS011;26970;49.900;10.774;2023-09-30T01:09:14;14.93;;;5.57;;
39502;SDS011;26970;49.900;10.774;2023-09-30T01:11:40;15.50;;;5.70;;
39502;SDS011;26970;49.900;10.774;2023-09-30T01:14:23;11.73;;;4.03;;
39502;SDS011;26970;49.900;10.774;2023-09-30T01:16:53;8.65;;;3.50;;
39502;SDS011;26970;49.900;10.774;2023-09-30T01:19:18;11.38;;;3.85;;
39502;SDS011;26970;49.900;10.774;2023-09-30T01:21:44;8.05;;;3.83;;
39502;SDS011;26970;49.900;10.774;2023-09-30T01:24:14;9.07;;;4.10;;
39502;SDS011;26970;49.900;10.774;2023-09-30T01:26:40;11.57;;;4.03;;
39502;SDS011;26970;49.900;10.774;2023-09-30T01:29:07;9.80;;;4.15;;
39502;SDS011;26970;49.900;10.774;2023-09-30T01:31:36;8.77;;;3.55;;
39502;SDS011;26970;49.900;10.774;2023-09-30T01:34:02;9.60;;;3.28;;
39502;SDS011;26970;49.900;10.774;2023-09-30T01:36:28;8.20;;;3.47;;
39502;SDS011;26970;49.900;10.774;2023-09-30T01:38:53;10.80;;;3.30;;
39502;SDS011;26970;49.900;10.774;2023-09-30T01:41:19;8.95;;;3.35;;
39502;SDS011;26970;49.900;10.774;2023-09-30T01:43:44;8.77;;;3.78;;
39502;SDS011;26970;49.900;10.774;2023-09-30T01:46:10;7.78;;;3.40;;
39502;SDS011;26970;49.900;10.774;2023-09-30T01:48:35;10.57;;;3.30;;
39502;SDS011;26970;49.900;10.774;2023-09-30T01:51:01;9.90;;;3.38;;
39502;SDS011;26970;49.900;10.774;2023-09-30T01:53:26;9.68;;;3.13;;
39502;SDS011;26970;49.900;10.774;2023-09-30T01:55:52;8.05;;;2.75;;
39502;SDS011;26970;49.900;10.774;2023-09-30T01:58:17;7.63;;;3.17;;
39502;SDS011;26970;49.900;10.774;2023-09-30T02:00:43;5.72;;;2.80;;
39502;SDS011;26970;49.900;10.774;2023-09-30T02:03:10;8.30;;;2.70;;
39502;SDS011;26970;49.900;10.774;2023-09-30T02:05:36;8.82;;;2.97;;
39502;SDS011;26970;49.900;10.774;2023-09-30T02:08:03;11.27;;;2.78;;
39502;SDS011;26970;49.900;10.774;2023-09-30T02:10:30;7.10;;;3.20;;
39502;SDS011;26970;49.900;10.774;2023-09-30T02:12:58;7.60;;;2.88;;
39502;SDS011;26970;49.900;10.774;2023-09-30T02:15:24;6.50;;;2.40;;
39502;SDS011;26970;49.900;10.774;2023-09-30T02:17:50;9.38;;;3.00;;
39502;SDS011;26970;49.900;10.774;2023-09-30T02:20:17;5.25;;;2.80;;
39502;SDS011;26970;49.900;10.774;2023-09-30T02:22:44;7.72;;;3.15;;
39502;SDS011;26970;49.900;10.774;2023-09-30T02:25:11;6.72;;;2.55;;
39502;SDS011;26970;49.900;10.774;2023-09-30T02:27:37;4.95;;;2.08;;
39502;SDS011;26970;49.900;10.774;2023-09-30T02:30:07;7.07;;;2.45;;
39502;SDS011;26970;49.900;10.774;2023-09-30T02:32:39;5.55;;;2.40;;
39502;SDS011;26970;49.900;10.774;2023-09-30T02:35:05;8.32;;;2.60;;
39502;SDS011;26970;49.900;10.774;2023-09-30T02:37:32;7.95;;;2.97;;
39502;SDS011;26970;49.900;10.774;2023-09-30T02:40:04;8.90;;;2.47;;
39502;SDS011;26970;49.900;10.774;2023-09-30T02:42:34;4.97;;;2.20;;
39502;SDS011;26970;49.900;10.774;2023-09-30T02:45:02;8.27;;;2.53;;
39502;SDS011;26970;49.900;10.774;2023-09-30T02:47:28;5.32;;;2.25;;
39502;SDS011;26970;49.900;10.774;2023-09-30T02:49:55;7.35;;;2.22;;
39502;SDS011;26970;49.900;10.774;2023-09-30T02:52:22;6.93;;;2.65;;
39502;SDS011;26970;49.900;10.774;2023-09-30T02:54:47;6.13;;;2.70;;
39502;SDS011;26970;49.900;10.774;2023-09-30T02:57:14;5.55;;;2.00;;
39502;SDS011;26970;49.900;10.774;2023-09-30T02:59:42;5.35;;;2.35;;
39502;SDS011;26970;49.900;10.774;2023-09-30T03:02:09;6.60;;;2.38;;
39502;SDS011;26970;49.900;10.774;2023-09-30T03:04:36;7.28;;;2.50;;
39502;SDS011;26970;49.900;10.774;2023-09-30T03:07:02;8.68;;;3.08;;
39502;SDS011;26970;49.900;10.774;2023-09-30T03:09:27;6.82;;;2.40;;
39502;SDS011;26970;49.900;10.774;2023-09-30T03:11:53;7.60;;;2.15;;
39502;SDS011;26970;49.900;10.774;2023-09-30T03:14:21;4.20;;;2.15;;
39502;SDS011;26970;49.900;10.774;2023-09-30T03:16:47;7.72;;;2.40;;
39502;SDS011;26970;49.900;10.774;2023-09-30T03:19:13;7.28;;;2.63;;
39502;SDS011;26970;49.900;10.774;2023-09-30T03:21:41;5.50;;;2.38;;
39502;SDS011;26970;49.900;10.774;2023-09-30T03:24:07;5.72;;;1.85;;
39502;SDS011;26970;49.900;10.774;2023-09-30T03:26:33;6.20;;;2.70;;
39502;SDS011;26970;49.900;10.774;2023-09-30T03:28:59;6.32;;;2.15;;
39502;SDS011;26970;49.900;10.774;2023-09-30T03:31:25;6.82;;;2.17;;
39502;SDS011;26970;49.900;10.774;2023-09-30T03:33:51;5.32;;;2.50;;
39502;SDS011;26970;49.900;10.774;2023-09-30T03:36:23;5.05;;;2.33;;
39502;SDS011;26970;49.900;10.774;2023-09-30T03:38:51;4.65;;;2.25;;
39502;SDS011;26970;49.900;10.774;2023-09-30T03:41:20;5.45;;;2.35;;
39502;SDS011;26970;49.900;10.774;2023-09-30T03:43:46;7.47;;;2.50;;
39502;SDS011;26970;49.900;10.774;2023-09-30T03:46:14;4.85;;;2.30;;
39502;SDS011;26970;49.900;10.774;2023-09-30T03:48:40;7.45;;;2.42;;
39502;SDS011;26970;49.900;10.774;2023-09-30T03:51:08;5.65;;;2.70;;
39502;SDS011;26970;49.900;10.774;2023-09-30T03:53:40;9.50;;;3.20;;
39502;SDS011;26970;49.900;10.774;2023-09-30T03:56:06;6.25;;;2.72;;
39502;SDS011;26970;49.900;10.774;2023-09-30T03:58:32;5.65;;;2.35;;
39502;SDS011;26970;49.900;10.774;2023-09-30T04:00:59;7.10;;;2.35;;
39502;SDS011;26970;49.900;10.774;2023-09-30T04:03:25;9.43;;;2.90;;
39502;SDS011;26970;49.900;10.774;2023-09-30T04:05:52;5.40;;;2.15;;
39502;SDS011;26970;49.900;10.774;2023-09-30T04:08:18;8.80;;;2.55;;
39502;SDS011;26970;49.900;10.774;2023-09-30T04:10:44;6.97;;;2.72;;
39502;SDS011;26970;49.900;10.774;2023-09-30T04:13:09;5.55;;;2.70;;
39502;SDS011;26970;49.900;10.774;2023-09-30T04:15:36;8.68;;;2.75;;
39502;SDS011;26970;49.900;10.774;2023-09-30T04:18:02;5.97;;;3.10;;
39502;SDS011;26970;49.900;10.774;2023-09-30T04:20:30;6.22;;;2.70;;
39502;SDS011;26970;49.900;10.774;2023-09-30T04:22:56;5.05;;;2.30;;
39502;SDS011;26970;49.900;10.774;2023-09-30T04:25:22;9.60;;;2.90;;
39502;SDS011;26970;49.900;10.774;2023-09-30T04:27:49;7.43;;;2.67;;
39502;SDS011;26970;49.900;10.774;2023-09-30T04:30:15;7.15;;;2.60;;
39502;SDS011;26970;49.900;10.774;2023-09-30T04:32:44;5.28;;;2.50;;
39502;SDS011;26970;49.900;10.774;2023-09-30T04:35:10;7.15;;;3.35;;
39502;SDS011;26970;49.900;10.774;2023-09-30T04:37:36;6.47;;;2.90;;
39502;SDS011;26970;49.900;10.774;2023-09-30T04:40:05;6.00;;;2.72;;
39502;SDS011;26970;49.900;10.774;2023-09-30T04:42:40;7.15;;;2.88;;
39502;SDS011;26970;49.900;10.774;2023-09-30T04:45:10;8.73;;;2.92;;
39502;SDS011;26970;49.900;10.774;2023-09-30T04:47:36;8.75;;;2.88;;
39502;SDS011;26970;49.900;10.774;2023-09-30T04:50:04;7.68;;;2.35;;
39502;SDS011;26970;49.900;10.774;2023-09-30T04:52:33;8.93;;;2.70;;
39502;SDS011;26970;49.900;10.774;2023-09-30T04:54:59;4.85;;;2.40;;
39502;SDS011;26970;49.900;10.774;2023-09-30T04:57:25;7.88;;;2.70;;
39502;SDS011;26970;49.900;10.774;2023-09-30T04:59:51;7.47;;;2.85;;
39502;SDS011;26970;49.900;10.774;2023-09-30T05:02:17;11.20;;;3.50;;
39502;SDS011;26970;49.900;10.774;2023-09-30T05:04:42;7.30;;;2.53;;
39502;SDS011;26970;49.900;10.774;2023-09-30T05:07:08;6.10;;;2.47;;
39502;SDS011;26970;49.900;10.774;2023-09-30T05:09:34;9.10;;;3.08;;
39502;SDS011;26970;49.900;10.774;2023-09-30T05:11:59;8.80;;;2.53;;
39502;SDS011;26970;49.900;10.774;2023-09-30T05:14:25;4.32;;;2.22;;
39502;SDS011;26970;49.900;10.774;2023-09-30T05:16:52;7.18;;;2.63;;
39502;SDS011;26970;49.900;10.774;2023-09-30T05:19:18;5.57;;;2.40;;
39502;SDS011;26970;49.900;10.774;2023-09-30T05:21:45;9.60;;;2.90;;
39502;SDS011;26970;49.900;10.774;2023-09-30T05:24:11;8.45;;;2.65;;
39502;SDS011;26970;49.900;10.774;2023-09-30T05:26:36;6.55;;;2.42;;
39502;SDS011;26970;49.900;10.774;2023-09-30T05:29:02;6.32;;;2.58;;
39502;SDS011;26970;49.900;10.774;2023-09-30T05:31:28;8.82;;;2.63;;
39502;SDS011;26970;49.900;10.774;2023-09-30T05:33:54;6.47;;;2.30;;
39502;SDS011;26970;49.900;10.774;2023-09-30T05:36:22;9.85;;;2.92;;
39502;SDS011;26970;49.900;10.774;2023-09-30T05:38:49;7.80;;;2.47;;
39502;SDS011;26970;49.900;10.774;2023-09-30T05:41:14;8.20;;;2.55;;
39502;SDS011;26970;49.900;10.774;2023-09-30T05:43:40;7.57;;;2.78;;
39502;SDS011;26970;49.900;10.774;2023-09-30T05:46:08;6.95;;;2.58;;
39502;SDS011;26970;49.900;10.774;2023-09-30T05:48:34;8.63;;;2.58;;
39502;SDS011;26970;49.900;10.774;2023-09-30T05:50:59;8.57;;;3.03;;
39502;SDS011;26970;49.900;10.774;2023-09-30T05:53:25;5.90;;;2.38;;
39502;SDS011;26970;49.900;10.774;2023-09-30T05:55:52;7.40;;;2.78;;
39502;SDS011;26970;49.900;10.774;2023-09-30T05:58:18;7.53;;;2.47;;
39502;SDS011;26970;49.900;10.774;2023-09-30T06:00:44;8.15;;;2.60;;
39502;SDS011;26970;49.900;10.774;2023-09-30T06:03:10;6.15;;;2.83;;
39502;SDS011;26970;49.900;10.774;2023-09-30T06:05:38;4.97;;;2.10;;
39502;SDS011;26970;49.900;10.774;2023-09-30T06:08:07;7.13;;;2.53;;
39502;SDS011;26970;49.900;10.774;2023-09-30T06:10:39;6.85;;;2.33;;
39502;SDS011;26970;49.900;10.774;2023-09-30T06:13:08;7.18;;;2.45;;
39502;SDS011;26970;49.900;10.774;2023-09-30T06:15:36;11.25;;;2.65;;
39502;SDS011;26970;49.900;10.774;2023-09-30T06:18:05;8.70;;;2.70;;
39502;SDS011;26970;49.900;10.774;2023-09-30T06:20:31;7.68;;;3.15;;
39502;SDS011;26970;49.900;10.774;2023-09-30T06:22:58;8.25;;;3.53;;
39502;SDS011;26970;49.900;10.774;2023-09-30T06:25:25;8.25;;;3.67;;
39502;SDS011;26970;49.900;10.774;2023-09-30T06:27:52;7.43;;;2.60;;
39502;SDS011;26970;49.900;10.774;2023-09-30T06:30:20;8.90;;;3.08;;
39502;SDS011;26970;49.900;10.774;2023-09-30T06:32:46;5.97;;;2.70;;
39502;SDS011;26970;49.900;10.774;2023-09-30T06:35:11;8.63;;;3.08;;
39502;SDS011;26970;49.900;10.774;2023-09-30T06:37:38;7.20;;;3.05;;
39502;SDS011;26970;49.900;10.774;2023-09-30T06:40:07;6.97;;;2.75;;
39502;SDS011;26970;49.900;10.774;2023-09-30T06:42:35;10.73;;;3.08;;
39502;SDS011;26970;49.900;10.774;2023-09-30T06:45:02;6.75;;;2.72;;
39502;SDS011;26970;49.900;10.774;2023-09-30T06:47:30;6.45;;;2.60;;
39502;SDS011;26970;49.900;10.774;2023-09-30T06:50:02;6.82;;;2.70;;
39502;SDS011;26970;49.900;10.774;2023-09-30T06:52:33;9.20;;;2.80;;
39502;SDS011;26970;49.900;10.774;2023-09-30T06:55:04;6.40;;;2.47;;
39502;SDS011;26970;49.900;10.774;2023-09-30T06:57:33;8.45;;;2.53;;
39502;SDS011;26970;49.900;10.774;2023-09-30T07:00:00;6.43;;;2.40;;
39502;SDS011;26970;49.900;10.774;2023-09-30T07:02:28;8.25;;;2.53;;
39502;SDS011;26970;49.900;10.774;2023-09-30T07:04:54;5.85;;;2.65;;
39502;SDS011;26970;49.900;10.774;2023-09-30T07:07:20;7.88;;;2.72;;
39502;SDS011;26970;49.900;10.774;2023-09-30T07:09:45;8.23;;;2.65;;
39502;SDS011;26970;49.900;10.774;2023-09-30T07:12:11;10.80;;;3.67;;
39502;SDS011;26970;49.900;10.774;2023-09-30T07:14:37;6.00;;;2.03;;
39502;SDS011;26970;49.900;10.774;2023-09-30T07:17:02;7.53;;;2.70;;
39502;SDS011;26970;49.900;10.774;2023-09-30T07:19:29;10.77;;;2.50;;
39502;SDS011;26970;49.900;10.774;2023-09-30T07:21:55;6.75;;;2.45;;
39502;SDS011;26970;49.900;10.774;2023-09-30T07:24:21;6.88;;;2.92;;
39502;SDS011;26970;49.900;10.774;2023-09-30T07:26:47;8.60;;;2.40;;
39502;SDS011;26970;49.900;10.774;2023-09-30T07:29:12;5.72;;;2.42;;
39502;SDS011;26970;49.900;10.774;2023-09-30T07:31:38;8.10;;;2.97;;
39502;SDS011;26970;49.900;10.774;2023-09-30T07:34:03;7.57;;;2.65;;
39502;SDS011;26970;49.900;10.774;2023-09-30T07:36:29;8.73;;;2.95;;
39502;SDS011;26970;49.900;10.774;2023-09-30T07:38:57;9.18;;;2.58;;
39502;SDS011;26970;49.900;10.774;2023-09-30T07:41:23;5.97;;;2.55;;
39502;SDS011;26970;49.900;10.774;2023-09-30T07:43:48;7.32;;;2.38;;
39502;SDS011;26970;49.900;10.774;2023-09-30T07:46:14;10.25;;;2.83;;
39502;SDS011;26970;49.900;10.774;2023-09-30T07:48:40;7.13;;;2.38;;
39502;SDS011;26970;49.900;10.774;2023-09-30T07:51:06;9.95;;;3.28;;
39502;SDS011;26970;49.900;10.774;2023-09-30T07:53:37;8.82;;;2.70;;
39502;SDS011;26970;49.900;10.774;2023-09-30T07:56:03;8.75;;;2.75;;
39502;SDS011;26970;49.900;10.774;2023-09-30T07:58:29;6.00;;;2.58;;
39502;SDS011;26970;49.900;10.774;2023-09-30T08:00:54;7.72;;;3.08;;
39502;SDS011;26970;49.900;10.774;2023-09-30T08:03:20;9.48;;;2.55;;
39502;SDS011;26970;49.900;10.774;2023-09-30T08:05:46;10.15;;;3.88;;
39502;SDS011;26970;49.900;10.774;2023-09-30T08:08:11;12.05;;;3.30;;
39502;SDS011;26970;49.900;10.774;2023-09-30T08:10:37;9.25;;;3.17;;
39502;SDS011;26970;49.900;10.774;2023-09-30T08:13:03;10.10;;;3.03;;
39502;SDS011;26970;49.900;10.774;2023-09-30T08:15:29;9.07;;;3.47;;
39502;SDS011;26970;49.900;10.774;2023-09-30T08:17:55;6.80;;;2.40;;
39502;SDS011;26970;49.900;10.774;2023-09-30T08:20:20;6.18;;;3.03;;
39502;SDS011;26970;49.900;10.774;2023-09-30T08:22:46;7.15;;;3.40;;
39502;SDS011;26970;49.900;10.774;2023-09-30T08:25:12;9.10;;;2.30;;
39502;SDS011;26970;49.900;10.774;2023-09-30T08:27:38;7.60;;;2.92;;
39502;SDS011;26970;49.900;10.774;2023-09-30T08:30:07;9.80;;;3.00;;
39502;SDS011;26970;49.900;10.774;2023-09-30T08:32:33;6.50;;;2.75;;
39502;SDS011;26970;49.900;10.774;2023-09-30T08:35:00;6.13;;;2.58;;
39502;SDS011;26970;49.900;10.774;2023-09-30T08:37:29;7.90;;;2.78;;
39502;SDS011;26970;49.900;10.774;2023-09-30T08:39:56;8.02;;;2.90;;
39502;SDS011;26970;49.900;10.774;2023-09-30T08:42:21;9.40;;;2.90;;
39502;SDS011;26970;49.900;10.774;2023-09-30T08:44:50;8.70;;;3.38;;
39502;SDS011;26970;49.900;10.774;2023-09-30T08:47:18;8.82;;;3.13;;
39502;SDS011;26970;49.900;10.774;2023-09-30T08:49:45;4.93;;;2.40;;
39502;SDS011;26970;49.900;10.774;2023-09-30T08:52:13;7.80;;;2.53;;
39502;SDS011;26970;49.900;10.774;2023-09-30T08:54:39;8.00;;;2.65;;
39502;SDS011;26970;49.900;10.774;2023-09-30T08:57:05;8.38;;;2.60;;
39502;SDS011;26970;49.900;10.774;2023-09-30T08:59:34;7.32;;;2.60;;
39502;SDS011;26970;49.900;10.774;2023-09-30T09:02:01;7.53;;;2.80;;
39502;SDS011;26970;49.900;10.774;2023-09-30T09:04:26;9.75;;;2.72;;
39502;SDS011;26970;49.900;10.774;2023-09-30T09:06:53;8.85;;;3.00;;
39502;SDS011;26970;49.900;10.774;2023-09-30T09:09:20;7.30;;;2.53;;
39502;SDS011;26970;49.900;10.774;2023-09-30T09:11:47;6.70;;;3.00;;
39502;SDS011;26970;49.900;10.774;2023-09-30T09:14:13;9.63;;;3.05;;
39502;SDS011;26970;49.900;10.774;2023-09-30T09:16:52;6.53;;;2.70;;
39502;SDS011;26970;49.900;10.774;2023-09-30T09:19:18;7.35;;;3.05;;
39502;SDS011;26970;49.900;10.774;2023-09-30T09:21:59;6.93;;;2.90;;
39502;SDS011;26970;49.900;10.774;2023-09-30T09:27:12;7.85;;;2.70;;
39502;SDS011;26970;49.900;10.774;2023-09-30T09:29:41;6.30;;;2.97;;
39502;SDS011;26970;49.900;10.774;2023-09-30T09:32:15;6.13;;;2.72;;
39502;SDS011;26970;49.900;10.774;2023-09-30T09:34:42;8.45;;;2.67;;
39502;SDS011;26970;49.900;10.774;2023-09-30T09:37:13;7.50;;;2.90;;
39502;SDS011;26970;49.900;10.774;2023-09-30T09:39:40;8.40;;;3.33;;
39502;SDS011;26970;49.900;10.774;2023-09-30T09:42:15;8.02;;;2.38;;
39502;SDS011;26970;49.900;10.774;2023-09-30T09:44:56;13.18;;;2.95;;
39502;SDS011;26970;49.900;10.774;2023-09-30T09:47:27;9.70;;;2.42;;
39502;SDS011;26970;49.900;10.774;2023-09-30T09:49:56;5.30;;;2.13;;
39502;SDS011;26970;49.900;10.774;2023-09-30T09:52:23;5.90;;;2.40;;
39502;SDS011;26970;49.900;10.774;2023-09-30T09:54:50;7.47;;;2.78;;
39502;SDS011;26970;49.900;10.774;2023-09-30T09:57:16;7.05;;;2.53;;
39502;SDS011;26970;49.900;10.774;2023-09-30T09:59:44;6.25;;;2.45;;
39502;SDS011;26970;49.900;10.774;2023-09-30T10:02:12;9.18;;;2.33;;
39502;SDS011;26970;49.900;10.774;2023-09-30T10:04:42;5.57;;;2.45;;
39502;SDS011;26970;49.900;10.774;2023-09-30T10:07:13;7.57;;;2.47;;
39502;SDS011;26970;49.900;10.774;2023-09-30T10:09:46;7.82;;;2.55;;
39502;SDS011;26970;49.900;10.774;2023-09-30T10:12:15;9.57;;;2.90;;
39502;SDS011;26970;49.900;10.774;2023-09-30T10:14:40;7.25;;;2.33;;
39502;SDS011;26970;49.900;10.774;2023-09-30T10:17:06;5.20;;;2.40;;
39502;SDS011;26970;49.900;10.774;2023-09-30T10:19:32;10.13;;;2.70;;
39502;SDS011;26970;49.900;10.774;2023-09-30T10:24:47;5.72;;;2.30;;
39502;SDS011;26970;49.900;10.774;2023-09-30T10:27:30;7.38;;;2.60;;
39502;SDS011;26970;49.900;10.774;2023-09-30T10:35:16;6.13;;;2.38;;
39502;SDS011;26970;49.900;10.774;2023-09-30T10:37:43;8.35;;;3.00;;
39502;SDS011;26970;49.900;10.774;2023-09-30T10:40:10;6.82;;;2.22;;
39502;SDS011;26970;49.900;10.774;2023-09-30T10:42:51;5.95;;;2.22;;
39502;SDS011;26970;49.900;10.774;2023-09-30T10:48:31;4.68;;;2.10;;
39502;SDS011;26970;49.900;10.774;2023-09-30T10:51:00;5.75;;;1.52;;
39502;SDS011;26970;49.900;10.774;2023-09-30T10:53:35;4.70;;;2.13;;
39502;SDS011;26970;49.900;10.774;2023-09-30T10:56:36;5.00;;;1.85;;
39502;SDS011;26970;49.900;10.774;2023-09-30T10:59:02;7.45;;;2.20;;
39502;SDS011;26970;49.900;10.774;2023-09-30T11:01:46;5.97;;;1.90;;
39502;SDS011;26970;49.900;10.774;2023-09-30T11:04:12;6.05;;;1.95;;
39502;SDS011;26970;49.900;10.774;2023-09-30T11:06:41;4.72;;;2.10;;
39502;SDS011;26970;49.900;10.774;2023-09-30T11:09:07;4.18;;;2.22;;
39502;SDS011;26970;49.900;10.774;2023-09-30T11:16:55;7.35;;;2.58;;
39502;SDS011;26970;49.900;10.774;2023-09-30T11:19:25;7.07;;;2.67;;
39502;SDS011;26970;49.900;10.774;2023-09-30T11:21:53;6.95;;;2.60;;
39502;SDS011;26970;49.900;10.774;2023-09-30T11:24:24;6.75;;;2.95;;
39502;SDS011;26970;49.900;10.774;2023-09-30T11:26:53;7.50;;;2.78;;
39502;SDS011;26970;49.900;10.774;2023-09-30T11:29:20;6.93;;;3.00;;
39502;SDS011;26970;49.900;10.774;2023-09-30T11:31:47;6.38;;;2.50;;
39502;SDS011;26970;49.900;10.774;2023-09-30T11:34:14;4.78;;;2.28;;
39502;SDS011;26970;49.900;10.774;2023-09-30T11:36:47;9.05;;;3.00;;
39502;SDS011;26970;49.900;10.774;2023-09-30T11:39:25;8.40;;;2.88;;
39502;SDS011;26970;49.900;10.774;2023-09-30T11:41:52;7.15;;;3.25;;
39502;SDS011;26970;49.900;10.774;2023-09-30T11:44:18;7.15;;;2.90;;
39502;SDS011;26970;49.900;10.774;2023-09-30T11:46:51;7.07;;;2.97;;
39502;SDS011;26970;49.900;10.774;2023-09-30T11:52:00;7.32;;;3.00;;
39502;SDS011;26970;49.900;10.774;2023-09-30T11:54:33;7.75;;;2.88;;
39502;SDS011;26970;49.900;10.774;2023-09-30T11:57:02;7.43;;;3.15;;
39502;SDS011;26970;49.900;10.774;2023-09-30T11:59:28;6.75;;;2.78;;
39502;SDS011;26970;49.900;10.774;2023-09-30T12:01:55;8.23;;;2.80;;
39502;SDS011;26970;49.900;10.774;2023-09-30T12:04:21;7.72;;;3.13;;
39502;SDS011;26970;49.900;10.774;2023-09-30T12:06:46;7.40;;;2.92;;
39502;SDS011;26970;49.900;10.774;2023-09-30T12:09:13;7.47;;;2.75;;
39502;SDS011;26970;49.900;10.774;2023-09-30T12:11:47;7.28;;;3.15;;
39502;SDS011;26970;49.900;10.774;2023-09-30T12:14:13;7.22;;;3.13;;
39502;SDS011;26970;49.900;10.774;2023-09-30T12:16:40;6.57;;;3.20;;
39502;SDS011;26970;49.900;10.774;2023-09-30T12:19:06;7.55;;;3.20;;
39502;SDS011;26970;49.900;10.774;2023-09-30T12:21:32;8.25;;;3.20;;
39502;SDS011;26970;49.900;10.774;2023-09-30T12:23:59;8.48;;;3.22;;
39502;SDS011;26970;49.900;10.774;2023-09-30T12:26:28;7.10;;;2.88;;
39502;SDS011;26970;49.900;10.774;2023-09-30T12:28:55;6.60;;;3.00;;
39502;SDS011;26970;49.900;10.774;2023-09-30T12:31:21;8.85;;;3.40;;
39502;SDS011;26970;49.900;10.774;2023-09-30T12:33:48;8.23;;;3.50;;
39502;SDS011;26970;49.900;10.774;2023-09-30T12:36:15;9.73;;;3.67;;
39502;SDS011;26970;49.900;10.774;2023-09-30T12:38:44;10.18;;;3.25;;
39502;SDS011;26970;49.900;10.774;2023-09-30T12:41:10;7.30;;;3.20;;
39502;SDS011;26970;49.900;10.774;2023-09-30T12:43:36;11.00;;;3.60;;
39502;SDS011;26970;49.900;10.774;2023-09-30T12:46:02;9.27;;;4.20;;
39502;SDS011;26970;49.900;10.774;2023-09-30T12:48:29;8.15;;;3.13;;
39502;SDS011;26970;49.900;10.774;2023-09-30T12:50:55;8.95;;;3.88;;
39502;SDS011;26970;49.900;10.774;2023-09-30T12:53:20;6.63;;;3.47;;
39502;SDS011;26970;49.900;10.774;2023-09-30T12:55:46;9.45;;;3.55;;
39502;SDS011;26970;49.900;10.774;2023-09-30T12:58:11;11.00;;;3.90;;
39502;SDS011;26970;49.900;10.774;2023-09-30T13:00:37;9.25;;;3.70;;
39502;SDS011;26970;49.900;10.774;2023-09-30T13:03:03;9.15;;;3.13;;
39502;SDS011;26970;49.900;10.774;2023-09-30T13:05:28;10.23;;;3.80;;
39502;SDS011;26970;49.900;10.774;2023-09-30T13:07:54;9.77;;;4.05;;
39502;SDS011;26970;49.900;10.774;2023-09-30T13:10:23;9.43;;;3.83;;
39502;SDS011;26970;49.900;10.774;2023-09-30T13:12:50;7.22;;;3.17;;
39502;SDS011;26970;49.900;10.774;2023-09-30T13:15:17;7.32;;;2.92;;
39502;SDS011;26970;49.900;10.774;2023-09-30T13:17:43;7.72;;;3.30;;
39502;SDS011;26970;49.900;10.774;2023-09-30T13:20:09;8.15;;;3.50;;
39502;SDS011;26970;49.900;10.774;2023-09-30T13:22:36;8.05;;;3.22;;
39502;SDS011;26970;49.900;10.774;2023-09-30T13:25:05;7.15;;;3.03;;
39502;SDS011;26970;49.900;10.774;2023-09-30T13:27:37;6.68;;;3.20;;
39502;SDS011;26970;49.900;10.774;2023-09-30T13:30:03;9.45;;;3.67;;
39502;SDS011;26970;49.900;10.774;2023-09-30T13:32:29;8.80;;;3.30;;
39502;SDS011;26970;49.900;10.774;2023-09-30T13:34:55;7.07;;;3.63;;
39502;SDS011;26970;49.900;10.774;2023-09-30T13:37:25;7.68;;;3.28;;
39502;SDS011;26970;49.900;10.774;2023-09-30T13:40:00;9.65;;;4.00;;
39502;SDS011;26970;49.900;10.774;2023-09-30T13:42:27;10.40;;;3.72;;
39502;SDS011;26970;49.900;10.774;2023-09-30T13:45:16;10.52;;;4.15;;
39502;SDS011;26970;49.900;10.774;2023-09-30T13:48:01;7.93;;;3.67;;
39502;SDS011;26970;49.900;10.774;2023-09-30T13:50:31;8.13;;;3.75;;
39502;SDS011;26970;49.900;10.774;2023-09-30T13:52:57;9.75;;;4.53;;
39502;SDS011;26970;49.900;10.774;2023-09-30T13:55:23;7.63;;;3.60;;
39502;SDS011;26970;49.900;10.774;2023-09-30T13:57:48;10.98;;;3.85;;
39502;SDS011;26970;49.900;10.774;2023-09-30T14:00:14;9.80;;;4.10;;
39502;SDS011;26970;49.900;10.774;2023-09-30T14:02:41;8.18;;;3.20;;
39502;SDS011;26970;49.900;10.774;2023-09-30T14:05:08;10.18;;;3.80;;
39502;SDS011;26970;49.900;10.774;2023-09-30T14:07:38;9.35;;;4.38;;
39502;SDS011;26970;49.900;10.774;2023-09-30T14:10:05;7.95;;;3.60;;
39502;SDS011;26970;49.900;10.774;2023-09-30T14:12:37;10.05;;;4.00;;
39502;SDS011;26970;49.900;10.774;2023-09-30T14:15:04;9.65;;;3.97;;
39502;SDS011;26970;49.900;10.774;2023-09-30T14:17:30;8.85;;;3.83;;
39502;SDS011;26970;49.900;10.774;2023-09-30T14:23:09;8.35;;;3.83;;
39502;SDS011;26970;49.900;10.774;2023-09-30T14:26:14;9.60;;;4.03;;
39502;SDS011;26970;49.900;10.774;2023-09-30T14:29:21;12.45;;;4.40;;
39502;SDS011;26970;49.900;10.774;2023-09-30T14:31:46;9.38;;;3.90;;
39502;SDS011;26970;49.900;10.774;2023-09-30T14:34:12;10.35;;;4.35;;
39502;SDS011;26970;49.900;10.774;2023-09-30T14:36:39;10.25;;;3.95;;
39502;SDS011;26970;49.900;10.774;2023-09-30T14:39:05;9.93;;;4.05;;
39502;SDS011;26970;49.900;10.774;2023-09-30T14:41:30;7.93;;;4.03;;
39502;SDS011;26970;49.900;10.774;2023-09-30T14:43:57;13.45;;;4.22;;
39502;SDS011;26970;49.900;10.774;2023-09-30T14:46:23;12.02;;;4.13;;
39502;SDS011;26970;49.900;10.774;2023-09-30T14:48:48;10.77;;;4.22;;
39502;SDS011;26970;49.900;10.774;2023-09-30T14:51:15;9.93;;;4.47;;
39502;SDS011;26970;49.900;10.774;2023-09-30T14:53:40;10.13;;;4.63;;
39502;SDS011;26970;49.900;10.774;2023-09-30T14:56:14;8.75;;;4.45;;
39502;SDS011;26970;49.900;10.774;2023-09-30T14:58:43;8.45;;;4.13;;